createdAt,value
2019-02-25T00:00:10.568Z,8.70
2019-02-25T00:02:39.088Z,8.83
2019-02-25T00:05:08.570Z,9.13
2019-02-25T00:07:37.083Z,8.73
2019-02-25T00:10:08.709Z,8.28
2019-02-25T00:12:37.251Z,7.95
2019-02-25T00:15:10.219Z,7.75
2019-02-25T00:17:40.286Z,7.40
2019-02-25T00:20:12.588Z,7.42
2019-02-25T00:22:41.128Z,7.60
2019-02-25T00:25:11.779Z,7.30
2019-02-25T00:27:40.260Z,7.47
2019-02-25T00:30:11.400Z,7.78
2019-02-25T00:32:39.876Z,7.08
2019-02-25T00:35:08.549Z,7.30
2019-02-25T00:37:37.115Z,6.90
2019-02-25T00:40:07.917Z,7.30
2019-02-25T00:42:36.536Z,7.20
2019-02-25T00:45:08.144Z,6.95
2019-02-25T00:47:36.689Z,7.50
2019-02-25T00:50:17.135Z,7.75
2019-02-25T00:52:45.782Z,8.25
2019-02-25T00:55:15.734Z,8.60
2019-02-25T00:57:44.335Z,8.40
2019-02-25T01:00:18.252Z,8.85
2019-02-25T01:02:47.027Z,8.35
2019-02-25T01:05:16.424Z,8.05
2019-02-25T01:07:45.052Z,7.95
2019-02-25T01:10:15.005Z,8.38
2019-02-25T01:12:45.298Z,8.13
2019-02-25T01:15:14.495Z,8.28
2019-02-25T01:17:42.946Z,8.30
2019-02-25T01:20:13.841Z,8.45
2019-02-25T01:22:44.236Z,9.10
2019-02-25T01:25:15.225Z,7.50
2019-02-25T01:27:43.727Z,6.83
2019-02-25T01:30:14.742Z,6.92
2019-02-25T01:32:43.249Z,7.25
2019-02-25T01:35:13.206Z,7.03
2019-02-25T01:37:41.772Z,6.50
2019-02-25T01:40:16.433Z,6.50
2019-02-25T01:42:45.249Z,6.00
2019-02-25T01:45:18.059Z,6.87
2019-02-25T01:47:46.707Z,6.70
2019-02-25T01:50:15.300Z,6.72
2019-02-25T01:52:43.848Z,6.78
2019-02-25T01:55:13.631Z,6.65
2019-02-25T01:57:42.333Z,6.70
2019-02-25T02:00:21.353Z,6.75
2019-02-25T02:02:49.900Z,6.62
